Time;durP1;ratioP1;P1;durP2;ratioP2;P2;SDS_P1;SDS_P2;PMS_P1;PMS_P2;Temp;Humidity;BMP_temperature;BMP_pressure;BME280_temperature;BME280_humidity;BME280_pressure;Samples;Min_cycle;Max_cycle;Signal;HPM_P1;HPM_P2
2021/06/02 00:00:36;;;;;;;10.83;9.73;;;16.20;66.50;;;;;;4893899;29;21019;-89
2021/06/02 00:24:16;;;;;;;10.10;9.07;;;15.90;68.80;;;;;;4850913;29;20444;-89
2021/06/02 00:56:30;;;;;;;10.13;8.80;;;15.20;72.70;;;;;;4812791;29;20527;-88
2021/06/02 01:00:08;;;;;;;;;;;;;;;;;;;;;
2021/06/02 01:06:40;;;;;;;;;;;;;;;;;;;;;
2021/06/02 01:17:38;;;;;;;10.73;8.47;;;15.00;74.00;;;;;;4806593;28;20941;-88
2021/06/02 02:09:30;;;;;;;8.63;7.20;;;14.10;78.30;;;;;;4961821;23;20483;-86
2021/06/02 02:12:02;;;;;;;7.97;7.17;;;14.00;79.00;;;;;;4960468;28;20537;-87
2021/06/02 02:14:51;;;;;;;10.10;8.60;;;14.00;79.50;;;;;;4958406;28;20447;-87
2021/06/02 02:17:31;;;;;;;11.90;7.57;;;14.00;80.00;;;;;;4956174;28;20443;-87
2021/06/02 02:20:08;;;;;;;9.80;8.80;;;13.80;80.00;;;;;;4957540;28;20517;-87
2021/06/02 02:22:48;;;;;;;8.93;7.60;;;13.90;80.50;;;;;;4964116;28;20431;-86
2021/06/02 02:25:25;;;;;;;9.17;8.20;;;13.80;81.50;;;;;;4979131;28;20445;-88
2021/06/02 02:28:05;;;;;;;9.43;8.50;;;13.70;81.80;;;;;;4958292;28;20463;-88
2021/06/02 02:30:44;;;;;;;10.87;8.30;;;13.70;82.30;;;;;;4957167;28;20522;-88
2021/06/02 02:33:24;;;;;;;11.30;9.20;;;13.70;82.70;;;;;;4957314;28;20522;-88
2021/06/02 02:36:01;;;;;;;12.40;9.93;;;13.60;82.80;;;;;;4956327;28;20502;-88
2021/06/02 02:38:38;;;;;;;10.80;9.57;;;13.60;83.00;;;;;;4955984;29;20496;-88
2021/06/02 02:41:24;;;;;;;11.47;10.20;;;13.60;83.20;;;;;;4955801;28;20496;-88
2021/06/02 02:44:01;;;;;;;12.20;9.50;;;13.60;84.00;;;;;;4956470;28;20953;-88
2021/06/02 02:46:33;;;;;;;12.60;10.37;;;13.50;84.60;;;;;;4955773;28;20531;-88
2021/06/02 02:49:11;;;;;;;12.03;10.57;;;13.50;84.90;;;;;;4956013;28;20508;-88
2021/06/02 02:51:43;;;;;;;11.20;10.13;;;13.50;84.90;;;;;;4969496;28;20451;-87
2021/06/02 02:54:13;;;;;;;11.87;10.60;;;13.50;84.50;;;;;;4973624;28;20454;-88
2021/06/02 02:56:48;;;;;;;11.43;10.27;;;13.40;84.80;;;;;;4962729;28;20460;-88
2021/06/02 02:59:20;;;;;;;12.03;10.07;;;13.40;85.80;;;;;;4956067;28;20488;-88
2021/06/02 03:01:51;;;;;;;11.43;10.00;;;13.40;86.70;;;;;;4958969;28;20458;-88
2021/06/02 03:04:22;;;;;;;11.47;10.40;;;13.40;86.00;;;;;;4968921;28;20435;-88
2021/06/02 03:06:53;;;;;;;13.33;10.57;;;13.40;87.00;;;;;;4964449;28;20954;-88
2021/06/02 03:09:29;;;;;;;16.90;10.20;;;13.40;86.00;;;;;;4956885;28;20470;-88
2021/06/02 03:12:09;;;;;;;10.80;9.70;;;13.30;86.20;;;;;;4956702;28;20954;-87
2021/06/02 03:14:48;;;;;;;9.80;8.90;;;13.40;86.20;;;;;;4959608;28;20453;-88
2021/06/02 03:17:21;;;;;;;11.57;9.10;;;13.40;86.10;;;;;;4972567;28;20488;-86
2021/06/02 03:19:59;;;;;;;12.83;9.33;;;13.30;86.30;;;;;;4967813;28;20876;-88
2021/06/02 03:22:30;;;;;;;9.67;8.53;;;13.30;86.70;;;;;;4955447;28;20507;-88
2021/06/02 03:25:13;;;;;;;9.20;8.30;;;13.20;86.80;;;;;;4954793;28;20454;-87
2021/06/02 03:27:56;;;;;;;9.40;8.40;;;13.10;87.30;;;;;;4937885;29;20831;-88
2021/06/02 03:30:30;;;;;;;11.20;10.10;;;13.10;87.40;;;;;;4942132;29;20544;-88
2021/06/02 03:33:03;;;;;;;12.40;10.50;;;13.00;87.60;;;;;;4956578;28;20452;-87
2021/06/02 03:35:35;;;;;;;12.67;9.53;;;12.90;88.30;;;;;;4959020;28;20463;-88
2021/06/02 03:38:18;;;;;;;12.27;10.30;;;12.90;88.70;;;;;;4973682;28;20504;-88
2021/06/02 03:40:53;;;;;;;10.60;9.50;;;12.90;89.30;;;;;;4960003;28;20521;-87
2021/06/02 03:43:25;;;;;;;11.33;9.67;;;13.00;89.00;;;;;;4977300;28;20463;-87
2021/06/02 03:46:02;;;;;;;12.20;9.30;;;13.00;89.60;;;;;;4979125;28;20437;-87
2021/06/02 03:48:34;;;;;;;9.73;8.07;;;12.90;89.00;;;;;;4963925;28;20475;-88
2021/06/02 03:51:14;;;;;;;11.87;8.80;;;12.90;89.00;;;;;;4957796;28;20458;-88
2021/06/02 03:54:04;;;;;;;9.63;8.63;;;12.80;89.70;;;;;;4956329;28;20462;-88
2021/06/02 03:56:43;;;;;;;10.00;8.67;;;12.80;90.00;;;;;;4937702;29;20449;-88
2021/06/02 03:59:17;;;;;;;11.77;10.53;;;12.80;90.00;;;;;;4937291;29;20495;-88
2021/06/02 04:01:51;;;;;;;11.70;9.43;;;12.70;90.10;;;;;;4963342;28;20425;-88
2021/06/02 04:04:27;;;;;;;13.20;11.63;;;12.70;90.50;;;;;;4977291;28;20459;-87
2021/06/02 04:07:04;;;;;;;13.67;10.70;;;12.80;90.60;;;;;;4968896;28;20461;-88
2021/06/02 04:09:34;;;;;;;13.23;10.33;;;12.80;90.60;;;;;;4954139;28;20476;-88
2021/06/02 04:12:17;;;;;;;13.60;12.30;;;12.80;90.70;;;;;;4954709;29;20922;-88
2021/06/02 04:14:54;;;;;;;18.83;10.10;;;12.80;90.80;;;;;;4935234;29;20810;-88
2021/06/02 04:17:22;;;;;;;12.03;10.83;;;12.80;90.90;;;;;;4936370;28;20510;-88
2021/06/02 04:19:50;;;;;;;16.27;11.80;;;12.70;91.10;;;;;;4954381;29;20488;-87
2021/06/02 04:22:18;;;;;;;16.57;10.70;;;12.80;91.30;;;;;;4954748;28;20660;-88
2021/06/02 04:24:45;;;;;;;15.90;11.47;;;12.90;91.20;;;;;;4949651;29;20426;-88
2021/06/02 04:27:14;;;;;;;17.83;10.23;;;12.90;91.20;;;;;;4955768;28;20451;-88
2021/06/02 04:29:47;;;;;;;16.80;11.03;;;12.90;91.10;;;;;;4954414;28;20474;-88
2021/06/02 04:32:14;;;;;;;13.33;11.10;;;12.90;91.20;;;;;;4953966;28;20508;-89
2021/06/02 04:34:41;;;;;;;10.90;9.77;;;13.00;91.20;;;;;;4954558;28;20462;-88
2021/06/02 04:37:09;;;;;;;9.93;8.93;;;13.00;90.80;;;;;;4954174;28;20457;-89
2021/06/02 04:39:38;;;;;;;11.70;9.93;;;13.10;90.60;;;;;;4954844;28;20492;-89
2021/06/02 04:42:06;;;;;;;11.50;9.53;;;13.10;90.50;;;;;;4960886;28;20440;-88
2021/06/02 04:44:33;;;;;;;12.30;9.00;;;13.00;90.60;;;;;;4979348;28;20656;-87
2021/06/02 04:47:03;;;;;;;10.27;9.07;;;13.10;90.70;;;;;;4975956;28;20449;-88
2021/06/02 04:49:38;;;;;;;17.23;10.27;;;13.10;90.90;;;;;;4974403;28;20473;-88
2021/06/02 04:52:37;;;;;;;21.67;10.50;;;13.10;90.90;;;;;;4980934;28;20448;-88
2021/06/02 04:55:27;;;;;;;24.47;15.40;;;13.10;90.90;;;;;;4978997;28;20446;-89
2021/06/02 04:58:17;;;;;;;12.53;10.30;;;13.20;90.70;;;;;;4959924;28;20454;-89
2021/06/02 05:01:16;;;;;;;13.00;10.83;;;13.20;90.60;;;;;;4958550;28;20448;-89
2021/06/02 05:04:34;;;;;;;17.90;11.77;;;13.30;90.80;;;;;;4960733;28;20459;-90
2021/06/02 05:07:25;;;;;;;14.73;12.93;;;13.40;90.60;;;;;;4971896;28;20438;-89
2021/06/02 05:10:34;;;;;;;15.20;11.70;;;13.50;90.40;;;;;;4966945;28;20484;-89
2021/06/02 05:13:48;;;;;;;18.67;12.07;;;13.80;90.30;;;;;;4895495;28;20595;-89
2021/06/02 05:16:47;;;;;;;17.67;13.20;;;14.70;86.90;;;;;;4970386;28;20430;-87
2021/06/02 05:20:00;;;;;;;16.30;11.60;;;15.70;82.20;;;;;;4967022;28;20471;-89
2021/06/02 05:23:01;;;;;;;17.50;11.77;;;16.60;78.20;;;;;;4966136;28;20519;-88
2021/06/02 05:25:56;;;;;;;9.47;8.43;;;17.50;73.60;;;;;;4981516;28;20467;-89
2021/06/02 05:29:06;;;;;;;9.60;8.67;;;18.30;69.00;;;;;;4988317;28;20461;-89
2021/06/02 05:32:14;;;;;;;9.43;8.53;;;18.80;65.40;;;;;;4986300;28;20442;-89
2021/06/02 05:35:09;;;;;;;8.80;8.00;;;19.40;63.10;;;;;;5085247;23;20500;-90
2021/06/02 05:38:29;;;;;;;8.73;7.60;;;19.80;60.50;;;;;;4999075;28;20445;-88
2021/06/02 05:41:05;;;;;;;9.90;8.20;;;20.10;59.60;;;;;;4998892;28;20428;-89
2021/06/02 05:44:25;;;;;;;8.20;7.40;;;20.40;58.70;;;;;;5001836;28;20458;-89
2021/06/02 05:47:29;;;;;;;10.00;7.87;;;20.80;57.90;;;;;;4981723;28;20410;-89
2021/06/02 05:50:37;;;;;;;9.97;7.17;;;21.40;57.10;;;;;;4992356;28;20486;-89
2021/06/02 05:53:36;;;;;;;8.00;6.30;;;21.70;55.60;;;;;;4957011;28;20459;-89
2021/06/02 05:56:46;;;;;;;6.63;6.13;;;22.10;54.90;;;;;;4968729;28;20950;-89
2021/06/02 05:59:45;;;;;;;6.27;5.63;;;22.50;53.70;;;;;;4979582;28;20513;-90
2021/06/02 06:02:45;;;;;;;9.40;6.40;;;22.90;52.70;;;;;;4979052;28;20510;-90
2021/06/02 06:05:24;;;;;;;7.40;6.20;;;23.20;51.10;;;;;;4975982;28;20451;-90
2021/06/02 06:08:28;;;;;;;7.87;5.80;;;23.50;50.40;;;;;;4979488;28;20437;-89
2021/06/02 06:11:34;;;;;;;9.70;5.90;;;23.30;49.40;;;;;;4979962;28;20466;-89
2021/06/02 06:14:25;;;;;;;8.90;7.00;;;23.70;50.00;;;;;;4950826;28;20461;-89
2021/06/02 06:17:10;;;;;;;6.77;6.03;;;24.40;49.00;;;;;;4962258;28;20440;-89
2021/06/02 06:20:15;;;;;;;6.27;4.80;;;24.40;48.30;;;;;;4965722;28;20494;-89
2021/06/02 06:22:59;;;;;;;8.67;5.27;;;24.70;47.70;;;;;;4995300;28;20458;-89
2021/06/02 06:25:33;;;;;;;5.00;4.57;;;24.30;47.00;;;;;;4963734;28;20441;-89
2021/06/02 06:28:07;;;;;;;5.07;4.47;;;24.50;47.10;;;;;;4958117;28;20460;-88
2021/06/02 06:30:36;;;;;;;4.40;4.00;;;24.30;46.70;;;;;;4973697;28;21020;-89
2021/06/02 06:33:10;;;;;;;4.63;4.27;;;24.60;47.50;;;;;;4979059;28;20452;-90
2021/06/02 06:35:38;;;;;;;4.10;3.70;;;25.20;46.20;;;;;;4962804;28;20531;-89
2021/06/02 06:38:08;;;;;;;4.30;3.80;;;25.80;45.90;;;;;;4960935;28;20964;-90
2021/06/02 06:40:37;;;;;;;7.57;3.93;;;25.70;44.20;;;;;;4975369;28;20455;-89
2021/06/02 06:43:06;;;;;;;5.00;3.90;;;26.40;43.60;;;;;;4980926;28;20456;-89
2021/06/02 06:45:34;;;;;;;5.13;4.17;;;26.50;41.60;;;;;;4967619;28;20844;-88
2021/06/02 06:48:10;;;;;;;6.20;4.00;;;26.50;42.20;;;;;;4966139;28;20479;-90
2021/06/02 06:50:37;;;;;;;6.00;4.00;;;27.00;41.60;;;;;;4980045;28;20442;-89
2021/06/02 06:53:07;;;;;;;5.87;4.60;;;27.00;41.10;;;;;;4991425;28;20496;-90
2021/06/02 06:55:34;;;;;;;4.90;4.43;;;27.00;40.90;;;;;;4998400;28;20432;-89
2021/06/02 06:58:05;;;;;;;6.20;4.57;;;27.20;41.40;;;;;;4987413;28;20437;-91
2021/06/02 07:00:34;;;;;;;6.03;4.90;;;27.30;40.40;;;;;;4974854;28;20495;-90
2021/06/02 07:03:01;;;;;;;9.13;4.43;;;27.60;40.30;;;;;;4975967;28;20494;-90
2021/06/02 07:05:28;;;;;;;5.10;4.60;;;27.70;40.50;;;;;;4965448;28;20536;-87
2021/06/02 07:07:59;;;;;;;8.17;4.50;;;27.90;40.60;;;;;;4955708;28;20467;-90
2021/06/02 07:10:26;;;;;;;5.17;4.73;;;28.20;40.10;;;;;;4971314;28;20832;-89
2021/06/02 07:12:53;;;;;;;7.17;5.37;;;28.30;39.50;;;;;;4977728;28;20448;-89
2021/06/02 07:15:21;;;;;;;9.37;4.80;;;28.90;39.50;;;;;;4962351;28;20449;-90
2021/06/02 07:17:49;;;;;;;4.87;4.23;;;29.60;38.20;;;;;;4957194;28;20456;-90
2021/06/02 07:20:18;;;;;;;5.17;4.67;;;29.30;38.10;;;;;;4957077;28;20495;-90
2021/06/02 07:23:25;;;;;;;4.67;4.27;;;29.30;38.00;;;;;;4979779;28;20432;-90
2021/06/02 07:25:57;;;;;;;4.83;4.30;;;29.50;37.30;;;;;;4974557;28;20461;-87
2021/06/02 07:28:33;;;;;;;4.00;3.70;;;30.00;36.60;;;;;;4978688;29;20441;-88
2021/06/02 07:31:01;;;;;;;5.40;4.20;;;29.80;36.10;;;;;;4988303;28;20502;-89
2021/06/02 07:33:27;;;;;;;7.23;3.50;;;29.60;36.70;;;;;;4994347;28;20442;-88
2021/06/02 07:35:53;;;;;;;4.10;3.80;;;30.20;36.00;;;;;;4992853;28;20444;-87
2021/06/02 07:38:20;;;;;;;4.80;3.73;;;30.70;34.70;;;;;;4985798;28;20420;-88
2021/06/02 07:40:46;;;;;;;4.17;3.77;;;30.90;33.50;;;;;;4985448;28;20472;-88
2021/06/02 07:43:12;;;;;;;4.67;4.27;;;30.70;33.60;;;;;;4975738;28;20456;-88
2021/06/02 07:45:39;;;;;;;5.00;4.40;;;31.40;33.40;;;;;;4967060;28;20425;-87
2021/06/02 07:48:08;;;;;;;7.03;4.70;;;31.00;32.00;;;;;;4976526;28;20441;-88
2021/06/02 07:50:34;;;;;;;4.20;3.80;;;30.90;32.60;;;;;;4970803;28;20468;-90
2021/06/02 07:53:01;;;;;;;5.10;3.90;;;31.20;32.70;;;;;;4965361;28;20444;-88
2021/06/02 07:55:27;;;;;;;4.03;3.73;;;31.80;32.80;;;;;;4963893;28;20460;-88
2021/06/02 07:57:53;;;;;;;5.83;4.53;;;32.20;31.60;;;;;;4955907;28;20476;-86
2021/06/02 08:00:20;;;;;;;7.47;4.80;;;32.30;31.40;;;;;;4972745;28;20489;-87
2021/06/02 08:02:47;;;;;;;8.30;4.10;;;32.80;31.30;;;;;;4958254;28;20477;-87
2021/06/02 08:05:15;;;;;;;4.47;4.07;;;33.20;30.50;;;;;;4985607;28;20435;-88
2021/06/02 08:07:43;;;;;;;9.23;4.00;;;33.60;30.00;;;;;;4980833;28;20445;-88
2021/06/02 08:10:10;;;;;;;6.83;3.80;;;34.00;29.50;;;;;;4958489;29;20472;-88
2021/06/02 08:12:37;;;;;;;4.90;3.97;;;34.00;29.40;;;;;;4962778;28;20444;-88
2021/06/02 08:15:04;;;;;;;3.53;3.23;;;34.30;29.10;;;;;;4975266;28;20447;-87
2021/06/02 08:17:30;;;;;;;3.73;2.90;;;33.90;28.60;;;;;;4972159;28;20452;-87
2021/06/02 08:19:56;;;;;;;2.60;2.40;;;33.40;28.50;;;;;;4974824;28;20490;-87
2021/06/02 08:22:23;;;;;;;5.37;2.80;;;32.90;29.00;;;;;;4974142;28;20452;-87
2021/06/02 08:24:55;;;;;;;3.90;3.10;;;32.90;28.20;;;;;;5003813;23;20495;-85
2021/06/02 08:27:24;;;;;;;4.90;2.80;;;33.50;28.20;;;;;;5003840;28;20480;-85
2021/06/02 08:29:56;;;;;;;6.50;2.90;;;33.60;27.40;;;;;;4982953;28;20469;-85
2021/06/02 08:32:24;;;;;;;10.10;3.30;;;34.10;26.50;;;;;;4981449;28;20439;-85
2021/06/02 08:34:50;;;;;;;6.20;3.67;;;34.20;26.80;;;;;;4993991;28;20476;-85
2021/06/02 08:37:16;;;;;;;4.70;3.40;;;34.60;27.20;;;;;;4979983;28;20436;-85
2021/06/02 08:39:45;;;;;;;3.70;3.40;;;34.80;27.90;;;;;;4997533;28;20925;-85
2021/06/02 08:42:11;;;;;;;6.63;3.60;;;34.70;27.00;;;;;;5002354;28;20465;-84
2021/06/02 08:44:38;;;;;;;9.20;4.17;;;35.10;27.20;;;;;;5003525;28;20839;-84
2021/06/02 08:47:05;;;;;;;6.77;3.50;;;34.70;28.00;;;;;;5007124;28;20459;-85
2021/06/02 08:49:32;;;;;;;5.63;3.60;;;34.80;28.20;;;;;;4988507;28;20527;-84
2021/06/02 08:52:01;;;;;;;3.53;3.23;;;35.30;27.90;;;;;;4987288;28;20458;-85
2021/06/02 08:54:27;;;;;;;4.23;3.13;;;35.40;27.70;;;;;;5001105;28;20473;-85
2021/06/02 08:56:55;;;;;;;3.80;3.20;;;35.70;27.20;;;;;;5004603;28;20455;-85
2021/06/02 08:59:22;;;;;;;8.63;3.50;;;35.50;27.30;;;;;;4993701;28;20511;-85
2021/06/02 09:01:50;;;;;;;4.10;3.10;;;36.10;26.80;;;;;;4983923;28;20455;-85
2021/06/02 09:04:16;;;;;;;4.13;3.17;;;36.70;26.20;;;;;;4994647;28;20470;-85
2021/06/02 09:06:45;;;;;;;3.83;2.97;;;36.80;25.90;;;;;;5001895;28;20451;-84
2021/06/02 09:09:13;;;;;;;5.00;3.07;;;36.80;26.10;;;;;;4990008;28;20455;-85
2021/06/02 09:11:41;;;;;;;11.33;3.90;;;36.90;25.90;;;;;;4982537;28;20447;-85
2021/06/02 09:14:22;;;;;;;4.00;3.17;;;37.50;24.80;;;;;;4996020;28;20533;-84
2021/06/02 09:16:50;;;;;;;2.97;2.67;;;37.40;24.50;;;;;;5003234;28;20442;-85
2021/06/02 09:19:16;;;;;;;3.90;2.80;;;36.20;25.10;;;;;;4991550;28;20491;-84
2021/06/02 09:21:43;;;;;;;3.03;2.50;;;35.70;24.20;;;;;;4981246;28;20452;-85
2021/06/02 09:24:09;;;;;;;3.60;2.60;;;37.00;24.30;;;;;;4992708;28;20498;-85
2021/06/02 09:26:35;;;;;;;4.70;2.87;;;37.20;23.20;;;;;;5010655;28;20459;-85
2021/06/02 09:29:08;;;;;;;3.33;2.40;;;37.20;22.60;;;;;;4991729;28;20480;-85
2021/06/02 09:31:37;;;;;;;2.97;2.77;;;37.40;22.90;;;;;;4988867;28;20455;-85
2021/06/02 09:34:13;;;;;;;3.20;2.90;;;36.90;22.90;;;;;;4998930;28;20466;-85
2021/06/02 09:36:41;;;;;;;5.20;2.93;;;36.80;23.90;;;;;;5005006;28;20489;-84
2021/06/02 09:39:09;;;;;;;3.67;3.03;;;36.90;23.30;;;;;;4986524;28;20475;-85
2021/06/02 09:41:40;;;;;;;3.07;2.53;;;36.90;23.50;;;;;;4985213;28;20456;-85
2021/06/02 09:44:16;;;;;;;4.77;2.83;;;37.10;23.60;;;;;;5003304;28;20852;-84
2021/06/02 09:47:01;;;;;;;4.30;3.43;;;36.70;23.30;;;;;;5001935;28;20454;-85
2021/06/02 09:49:28;;;;;;;3.63;2.77;;;36.00;23.90;;;;;;5002069;28;20435;-85
2021/06/02 09:51:55;;;;;;;6.77;3.40;;;37.00;23.60;;;;;;5000204;28;20457;-85
2021/06/02 09:54:23;;;;;;;3.20;2.90;;;38.20;23.00;;;;;;4981348;28;20464;-85
2021/06/02 09:56:50;;;;;;;7.77;3.37;;;38.30;22.30;;;;;;4982317;28;20440;-85
2021/06/02 09:59:18;;;;;;;3.70;2.80;;;38.00;23.20;;;;;;4982533;28;20879;-85
2021/06/02 10:01:56;;;;;;;6.43;3.03;;;38.30;22.60;;;;;;4996890;28;20455;-85
2021/06/02 10:04:33;;;;;;;4.30;3.90;;;38.00;22.90;;;;;;5008067;28;20449;-85
2021/06/02 10:06:59;;;;;;;5.40;3.20;;;38.50;22.80;;;;;;4988052;28;20506;-85
2021/06/02 10:09:30;;;;;;;3.43;2.80;;;39.40;21.80;;;;;;4983296;28;20949;-83
2021/06/02 10:12:01;;;;;;;3.30;2.97;;;39.70;21.60;;;;;;4983454;28;20522;-84
2021/06/02 10:14:27;;;;;;;3.57;2.67;;;40.50;21.40;;;;;;4979324;28;20476;-84
2021/06/02 10:16:54;;;;;;;3.07;2.80;;;39.90;21.30;;;;;;4983447;28;20480;-83
2021/06/02 10:22:25;;;;;;;2.80;2.60;;;40.10;21.50;;;;;;5153629;27;20540;-84
2021/06/02 10:24:53;;;;;;;3.10;2.80;;;40.90;21.20;;;;;;5136088;27;20550;-84
2021/06/02 10:27:21;;;;;;;2.53;2.33;;;41.20;20.50;;;;;;5137665;27;20516;-84
2021/06/02 10:29:48;;;;;;;4.53;2.90;;;41.10;19.80;;;;;;5135567;27;20445;-84
2021/06/02 10:32:15;;;;;;;2.90;2.70;;;40.20;20.70;;;;;;5136984;27;20451;-84
2021/06/02 10:34:42;;;;;;;3.60;2.60;;;38.60;21.30;;;;;;5137647;27;20464;-85
2021/06/02 10:37:11;;;;;;;4.10;3.13;;;39.60;21.70;;;;;;5142875;27;20433;-84
2021/06/02 10:39:41;;;;;;;3.37;2.90;;;39.80;21.20;;;;;;5148069;27;20456;-84
2021/06/02 10:42:17;;;;;;;2.87;2.67;;;40.50;20.80;;;;;;5146199;27;20464;-84
2021/06/02 10:44:50;;;;;;;2.47;2.27;;;42.20;20.40;;;;;;5140634;27;20468;-85
2021/06/02 10:47:22;;;;;;;2.90;2.50;;;43.30;18.80;;;;;;5137669;27;20451;-85
2021/06/02 10:49:48;;;;;;;3.03;2.73;;;43.70;18.70;;;;;;5137218;27;20461;-85
2021/06/02 10:52:35;;;;;;;3.43;2.50;;;44.00;18.80;;;;;;5142250;27;20643;-84
2021/06/02 10:55:35;;;;;;;2.90;2.70;;;43.30;19.00;;;;;;5140446;27;20465;-85
2021/06/02 10:58:28;;;;;;;4.30;3.50;;;44.60;18.60;;;;;;5122782;28;20559;-84
2021/06/02 11:01:14;;;;;;;2.70;2.50;;;43.60;18.40;;;;;;5122103;27;21018;-85
2021/06/02 11:03:42;;;;;;;3.50;3.03;;;42.30;18.80;;;;;;5140018;27;20476;-85
2021/06/02 11:06:37;;;;;;;2.73;2.53;;;42.40;19.00;;;;;;5137497;27;20452;-84
2021/06/02 11:09:14;;;;;;;5.50;2.97;;;43.00;19.00;;;;;;5139791;27;20444;-84
2021/06/02 11:11:43;;;;;;;2.70;2.50;;;43.60;18.30;;;;;;5136310;27;20441;-84
2021/06/02 11:14:27;;;;;;;3.50;2.63;;;42.00;18.30;;;;;;5146847;27;20464;-85
2021/06/02 11:17:18;;;;;;;3.03;2.73;;;42.00;19.50;;;;;;5143575;27;20452;-84
2021/06/02 11:19:53;;;;;;;2.83;2.63;;;42.70;18.70;;;;;;5165208;27;20435;-84
2021/06/02 11:22:22;;;;;;;3.83;2.47;;;43.20;18.70;;;;;;5163848;27;20491;-84
2021/06/02 11:24:54;;;;;;;2.80;2.43;;;42.80;18.50;;;;;;5161201;27;20470;-84
2021/06/02 11:27:35;;;;;;;5.23;2.90;;;42.20;18.40;;;;;;5166166;27;20433;-84
2021/06/02 11:30:26;;;;;;;2.87;2.47;;;41.50;20.00;;;;;;5154692;27;20557;-84
2021/06/02 11:32:59;;;;;;;2.73;2.53;;;42.40;19.30;;;;;;5136149;27;20532;-84
2021/06/02 11:35:54;;;;;;;3.00;2.73;;;42.90;18.90;;;;;;5134492;27;20448;-84
2021/06/02 11:38:21;;;;;;;5.13;3.23;;;42.80;18.50;;;;;;5139498;28;20735;-83
2021/06/02 11:40:48;;;;;;;2.70;2.50;;;43.30;19.10;;;;;;5126884;28;20538;-84
2021/06/02 11:43:16;;;;;;;3.93;2.63;;;43.50;19.10;;;;;;5120301;28;20516;-84
2021/06/02 11:45:43;;;;;;;4.00;2.73;;;44.20;18.30;;;;;;5119909;28;20528;-84
2021/06/02 11:48:11;;;;;;;3.03;2.73;;;43.50;18.40;;;;;;5108247;28;20493;-84
2021/06/02 11:50:38;;;;;;;2.57;2.37;;;43.80;18.60;;;;;;5120038;28;20445;-84
2021/06/02 11:53:05;;;;;;;2.97;2.67;;;43.70;18.00;;;;;;5122191;28;20446;-84
2021/06/02 11:55:33;;;;;;;3.17;2.87;;;43.50;18.10;;;;;;5121329;28;20566;-84
2021/06/02 11:58:00;;;;;;;2.67;2.47;;;43.80;18.10;;;;;;5132211;28;20453;-84
2021/06/02 12:00:29;;;;;;;3.10;2.80;;;43.60;17.90;;;;;;5126684;28;20841;-83
2021/06/02 12:02:57;;;;;;;2.63;2.43;;;43.20;18.00;;;;;;5120484;27;20450;-84
2021/06/02 12:05:26;;;;;;;2.73;2.53;;;42.70;18.50;;;;;;5122727;28;20815;-83
2021/06/02 12:07:54;;;;;;;2.60;2.40;;;40.50;18.90;;;;;;5123354;28;20510;-84
2021/06/02 12:10:22;;;;;;;3.03;2.73;;;40.90;19.80;;;;;;5121695;27;20779;-84
2021/06/02 12:12:48;;;;;;;4.33;2.87;;;40.00;20.10;;;;;;5119171;28;20520;-84
2021/06/02 12:15:17;;;;;;;2.93;2.63;;;40.80;19.50;;;;;;5124258;28;20539;-84
2021/06/02 12:17:45;;;;;;;2.97;2.70;;;41.70;19.50;;;;;;5132150;28;20436;-84
2021/06/02 12:20:14;;;;;;;3.37;2.40;;;42.30;19.50;;;;;;5119813;28;20456;-84
2021/06/02 12:22:41;;;;;;;4.17;2.50;;;42.60;18.90;;;;;;5119745;28;20441;-84
2021/06/02 12:25:09;;;;;;;3.67;2.77;;;43.60;18.70;;;;;;5117233;28;20510;-84
2021/06/02 12:27:39;;;;;;;3.50;2.83;;;44.50;17.80;;;;;;5117616;27;20440;-82
2021/06/02 12:30:08;;;;;;;3.87;2.30;;;44.60;17.30;;;;;;5119261;28;20445;-85
2021/06/02 12:32:50;;;;;;;2.77;2.57;;;43.10;17.80;;;;;;5133978;28;20445;-85
2021/06/02 12:35:34;;;;;;;2.37;2.17;;;39.60;19.60;;;;;;5121058;27;20630;-85
2021/06/02 12:38:12;;;;;;;3.63;2.57;;;40.30;19.90;;;;;;5111254;28;20446;-85
2021/06/02 12:40:40;;;;;;;138.93;18.17;;;41.30;19.50;;;;;;5116947;27;20469;-83
2021/06/02 12:43:16;;;;;;;3.27;2.50;;;42.10;19.40;;;;;;5116504;28;20502;-83
2021/06/02 12:45:43;;;;;;;3.60;2.80;;;42.20;18.50;;;;;;5116105;27;20452;-84
2021/06/02 12:48:12;;;;;;;2.67;2.47;;;41.10;19.10;;;;;;5116470;28;20449;-83
2021/06/02 12:50:46;;;;;;;2.80;2.40;;;40.60;19.80;;;;;;5116223;28;20456;-84
2021/06/02 12:53:14;;;;;;;2.60;2.40;;;41.80;19.50;;;;;;5116185;28;20440;-84
2021/06/02 12:55:42;;;;;;;4.30;2.83;;;42.10;19.10;;;;;;5119151;27;20453;-84
2021/06/02 12:58:12;;;;;;;3.97;2.67;;;41.30;18.90;;;;;;5131151;28;20445;-84
2021/06/02 13:00:40;;;;;;;2.83;2.50;;;40.50;19.40;;;;;;5128466;28;20465;-84
2021/06/02 13:03:07;;;;;;;4.33;2.47;;;39.80;19.90;;;;;;5122877;28;20441;-83
2021/06/02 13:05:35;;;;;;;3.90;2.77;;;39.60;20.20;;;;;;5126446;27;20434;-84
2021/06/02 13:08:06;;;;;;;3.60;2.73;;;39.90;20.30;;;;;;5123050;28;20453;-83
2021/06/02 13:10:33;;;;;;;3.07;2.67;;;40.90;19.70;;;;;;5132736;28;20469;-84
2021/06/02 13:13:01;;;;;;;3.23;2.47;;;38.80;20.20;;;;;;5124155;28;20441;-83
2021/06/02 13:15:30;;;;;;;3.07;2.37;;;38.00;21.60;;;;;;5130945;28;20441;-83
2021/06/02 13:17:57;;;;;;;3.50;2.37;;;38.50;21.60;;;;;;5128476;28;20442;-84
2021/06/02 13:20:37;;;;;;;4.33;2.80;;;39.20;20.90;;;;;;5125658;28;20510;-84
2021/06/02 13:23:15;;;;;;;2.73;2.50;;;38.70;21.00;;;;;;5124633;28;20459;-84
2021/06/02 13:25:43;;;;;;;4.10;2.53;;;37.60;21.60;;;;;;5122419;27;20976;-84
2021/06/02 13:28:10;;;;;;;3.10;2.57;;;38.00;22.00;;;;;;5120305;28;20446;-84
2021/06/02 13:30:38;;;;;;;2.60;2.40;;;39.40;21.50;;;;;;5117881;28;20933;-84
2021/06/02 13:33:05;;;;;;;2.57;2.20;;;40.50;20.40;;;;;;5116631;28;20456;-84
2021/06/02 13:35:31;;;;;;;3.37;2.50;;;40.60;19.90;;;;;;5116030;28;20469;-85
2021/06/02 13:37:59;;;;;;;3.10;2.90;;;42.00;19.70;;;;;;5119874;28;20446;-84
2021/06/02 13:40:30;;;;;;;3.07;2.77;;;42.10;19.10;;;;;;5130862;28;20449;-84
2021/06/02 13:43:09;;;;;;;3.10;2.80;;;41.10;19.40;;;;;;5124816;28;20453;-84
2021/06/02 13:45:40;;;;;;;2.97;2.50;;;41.10;19.60;;;;;;5122120;28;20484;-84
2021/06/02 13:48:31;;;;;;;2.60;2.40;;;41.10;19.70;;;;;;5126679;28;20472;-83
2021/06/02 13:51:22;;;;;;;3.10;2.17;;;41.50;19.50;;;;;;5123616;27;20525;-83
2021/06/02 13:54:16;;;;;;;2.40;2.20;;;42.80;19.00;;;;;;5108237;28;20469;-83
2021/06/02 13:56:49;;;;;;;2.80;2.60;;;42.00;18.70;;;;;;5120580;27;20453;-83
2021/06/02 13:59:17;;;;;;;3.20;2.47;;;42.10;19.10;;;;;;5122201;28;20438;-84
2021/06/02 14:01:45;;;;;;;2.90;2.60;;;41.90;19.20;;;;;;5118983;28;20568;-85
2021/06/02 14:04:12;;;;;;;2.70;2.23;;;41.70;19.30;;;;;;5118076;27;20465;-84
2021/06/02 14:06:38;;;;;;;2.87;2.67;;;41.60;19.00;;;;;;5117094;28;20488;-84
2021/06/02 14:09:08;;;;;;;2.17;2.00;;;41.10;19.30;;;;;;5117127;28;20450;-85
2021/06/02 14:11:36;;;;;;;2.27;2.07;;;41.10;19.20;;;;;;5116522;28;20806;-84
2021/06/02 14:14:03;;;;;;;3.73;2.40;;;41.20;19.10;;;;;;5115382;28;20519;-84
2021/06/02 14:16:30;;;;;;;2.60;1.93;;;41.20;19.00;;;;;;5115604;28;20449;-84
2021/06/02 14:18:58;;;;;;;3.20;2.50;;;40.90;19.30;;;;;;5117494;28;20449;-84
2021/06/02 14:21:25;;;;;;;2.13;1.93;;;40.00;19.40;;;;;;5120435;28;20469;-84
2021/06/02 14:23:51;;;;;;;3.10;2.80;;;38.20;20.70;;;;;;5119968;28;20487;-83
2021/06/02 14:26:18;;;;;;;3.43;2.57;;;37.50;21.30;;;;;;5117270;28;20446;-84
2021/06/02 14:28:46;;;;;;;3.33;2.60;;;37.20;21.80;;;;;;5116439;28;20591;-84
2021/06/02 14:31:13;;;;;;;5.20;2.67;;;36.10;22.40;;;;;;5118032;28;20468;-83
2021/06/02 14:33:40;;;;;;;2.30;2.10;;;35.10;23.60;;;;;;5122128;28;20457;-83
2021/06/02 14:36:07;;;;;;;3.67;2.50;;;34.20;23.90;;;;;;5096162;22;20504;-86
2021/06/02 14:38:33;;;;;;;2.90;2.30;;;33.30;24.50;;;;;;5033453;28;20445;-86
2021/06/02 14:41:01;;;;;;;2.87;2.37;;;32.40;25.80;;;;;;5033547;28;20476;-85
2021/06/02 14:43:27;;;;;;;2.63;2.43;;;31.50;26.20;;;;;;5033132;28;20445;-87
2021/06/02 14:45:55;;;;;;;2.47;2.27;;;31.00;26.70;;;;;;5025819;28;20473;-87
2021/06/02 14:48:21;;;;;;;3.13;2.40;;;30.70;27.50;;;;;;5037222;28;20446;-87
2021/06/02 14:50:48;;;;;;;2.43;2.20;;;30.70;27.80;;;;;;5027140;28;20450;-85
2021/06/02 14:53:14;;;;;;;2.70;2.50;;;30.60;27.90;;;;;;5016283;28;20449;-87
2021/06/02 14:55:40;;;;;;;3.57;3.27;;;30.60;28.10;;;;;;5013618;28;20462;-86
2021/06/02 14:58:07;;;;;;;3.20;3.00;;;30.60;28.00;;;;;;5014014;28;20896;-87
2021/06/02 15:00:33;;;;;;;2.50;2.30;;;30.40;28.10;;;;;;5027947;28;20447;-86
2021/06/02 15:03:01;;;;;;;2.70;2.50;;;30.30;28.20;;;;;;5028531;28;20484;-84
2021/06/02 15:05:29;;;;;;;6.80;2.53;;;30.20;28.50;;;;;;5013196;28;20523;-87
2021/06/02 15:07:56;;;;;;;2.90;2.60;;;30.00;28.70;;;;;;5015328;28;20519;-87
2021/06/02 15:10:24;;;;;;;2.50;2.30;;;29.60;29.40;;;;;;5021145;28;20449;-88
2021/06/02 15:12:52;;;;;;;3.23;2.40;;;29.30;29.40;;;;;;5022312;28;20503;-88
2021/06/02 15:15:19;;;;;;;2.40;2.20;;;29.30;29.80;;;;;;5018777;28;20470;-88
2021/06/02 15:17:45;;;;;;;2.30;2.10;;;29.30;29.50;;;;;;5028130;28;20445;-88